Data for 09/08/2013

Time Sea-Level Adjusted Pressure Absolute Pressure Temperature Relative Humidity Dew Point   
(mb) (inHg) (mb) (inHg) (C) (F) (%) (C) (F)
00:05 1020 30.12 849 25.07 15.4 59.7 72 10.5 50.8
00:10 1020 30.12 849 25.07 15.3 59.5 73 10.6 51
00:15 1020 30.12 849 25.07 15.2 59.4 74 10.6 51.1
00:20 1020 30.12 849 25.07 15.2 59.4 73 10.5 51
00:25 1020 30.12 849 25.07 15.2 59.4 74 10.6 51.2
00:30 1020 30.12 849 25.07 15.2 59.4 75 10.8 51.4
00:35 1020 30.12 849 25.07 15.2 59.3 75 10.9 51.5
00:40 1020 30.12 849 25.07 15.2 59.3 75 10.9 51.6
00:45 1020 30.12 849 25.07 15.2 59.3 76 11 51.8
00:50 1020 30.12 849 25.07 15.2 59.3 76 11 51.7
00:55 1020 30.12 849 25.07 15.2 59.4 76 11 51.8
01:00 1020 30.12 849 25.07 15.3 59.5 76 11.1 52
01:05 1020 30.12 849 25.07 15.2 59.4 77 11.2 52.2
01:10 1020 30.12 849 25.07 15.1 59.2 78 11.3 52.3
01:15 1020 30.12 849 25.07 15.1 59.2 77 11.2 52.1
01:20 1020 30.12 849 25.07 15.1 59.2 77 11.2 52.2
01:25 1020 30.12 849 25.07 15.1 59.2 78 11.2 52.2
01:30 1020 30.12 849 25.07 15.1 59.1 77 11.2 52.1
01:35 1020 30.12 849 25.07 15.1 59.1 78 11.2 52.2
01:40 1020 30.12 849 25.07 15 59 78 11.3 52.3
01:45 1020 30.12 849 25.07 15 58.9 78 11.2 52.2
01:50 1020 30.12 849 25.07 15 58.9 78 11.3 52.3
01:55 1020 30.12 849 25.07 14.9 58.8 79 11.2 52.2
02:00 1020 30.12 849 25.07 14.8 58.7 79 11.2 52.1
02:05 1020 30.12 849 25.07 14.8 58.7 78 11.1 52
02:10 1020 30.12 849 25.07 14.9 58.7 78 11.2 52.1
02:15 1020 30.12 849 25.07 14.8 58.6 78 11.1 52
02:20 1020 30.12 849 25.07 14.8 58.6 78 11.1 52
02:25 1020 30.12 849 25.07 14.8 58.6 79 11.1 52.1
02:30 1020 30.12 849 25.07 14.8 58.6 78 11.1 52
02:35 1020 30.12 849 25.07 14.8 58.6 78 11.1 51.9
02:40 1020 30.12 849 25.07 14.8 58.6 78 11 51.8
02:45 1020 30.12 849 25.07 14.8 58.6 78 11 51.7
02:50 1020 30.12 849 25.07 14.8 58.6 77 10.9 51.6
02:55 1020 30.12 849 25.07 14.8 58.6 77 10.8 51.4
03:00 1020 30.12 849 25.07 14.9 58.8 76 10.7 51.2
03:05 1020 30.12 849 25.07 15 59 76 10.8 51.4
03:10 1020 30.12 849 25.07 14.9 58.9 76 10.9 51.5
03:15 1020 30.12 849 25.07 14.8 58.7 77 10.9 51.6
03:20 1020 30.12 849 25.07 14.8 58.6 77 10.9 51.6
03:25 1020 30.12 849 25.07 14.8 58.6 78 10.9 51.7
03:30 1020 30.12 849 25.07 14.6 58.3 78 10.8 51.5
03:35 1020 30.12 849 25.07 14.6 58.2 78 10.8 51.4
03:40 1020 30.12 849 25.07 14.4 58 78 10.8 51.4
03:45 1020 30.12 849 25.07 14.3 57.8 79 10.8 51.5
03:50 1020 30.12 849 25.07 14.3 57.7 79 10.7 51.3
03:55 1020 30.12 849 25.07 14.2 57.5 79 10.6 51.1
04:00 1020 30.12 849 25.07 14.1 57.4 77 10.1 50.2
04:05 1020 30.12 849 25.07 14 57.2 75 9.7 49.5
04:10 1020 30.12 849 25.07 13.9 56.9 72 9 48.2
04:15 1020 30.12 849 25.07 13.9 57 72 9 48.3
04:20 1020 30.12 849 25.07 13.8 56.8 73 9.1 48.3
04:25 1020 30.12 849 25.07 13.8 56.8 72 8.8 47.9
04:30 1020 30.12 849 25.07 13.8 56.8 70 8.5 47.2
04:35 1020 30.12 849 25.07 13.9 57.1 69 8.3 47
04:40 1020 30.12 849 25.07 13.9 57.1 70 8.5 47.4
04:45 1020 30.12 849 25.07 13.8 56.9 69 8.3 47
04:50 1020 30.12 849 25.07 13.9 56.9 71 8.6 47.6
04:55 1020 30.12 849 25.07 14 57.2 71 9 48.1
05:00 1020 30.12 849 25.07 13.8 56.8 74 9.2 48.6
05:05 1020 30.12 849 25.07 14 57.1 75 9.6 49.2
05:10 1020 30.12 849 25.07 14 57.1 76 9.8 49.6
05:15 1020 30.12 849 25.07 13.9 57 75 9.6 49.4
05:20 1020 30.12 849 25.07 14 57.2 75 9.7 49.4
05:25 1020 30.12 849 25.07 14 57.1 76 9.8 49.6
05:30 1020 30.12 849 25.07 13.8 56.8 77 9.8 49.7
05:35 1020 30.12 849 25.07 13 55.4 79 9.5 49.1
05:40 1020 30.12 849 25.07 12.3 54.1 81 9.2 48.5
05:45 1020 30.12 849 25.07 11.8 53.2 82 8.8 47.8
05:50 1020 30.12 849 25.07 11.4 52.5 81 8.2 46.8
05:55 1020 30.12 849 25.07 11.3 52.4 79 7.8 46.1
06:00 1020 30.12 849 25.07 11.4 52.6 78 7.8 46
06:05 1020 30.12 849 25.07 11.4 52.5 78 7.7 45.8
06:10 1020 30.12 849 25.07 11.3 52.4 78 7.6 45.6
06:15 1020 30.12 849 25.07 11.2 52.2 78 7.6 45.7
06:20 1020 30.12 849 25.07 11.1 51.9 78 7.4 45.3
06:25 1020 30.12 849 25.07 11.2 52.1 77 7.3 45.1
06:30 1020 30.12 849 25.07 11.3 52.3 77 7.4 45.4
06:35 1020 30.12 849 25.07 11.1 51.9 79 7.5 45.5
06:40 1020 30.12 849 25.07 11.1 52 78 7.4 45.4
06:45 1020 30.12 849 25.07 11.4 52.5 79 8 46.4
06:50 1020 30.12 849 25.07 11.7 53 79 8.2 46.7
06:55 1020 30.12 849 25.07 11.7 53.1 80 8.4 47
07:00 1020 30.12 849 25.07 11.8 53.3 79 8.3 46.9
07:05 1020 30.12 849 25.07 12.3 54.2 77 8.5 47.3
07:10 1020 30.12 849 25.07 13 55.3 75 8.6 47.4
07:15 1020 30.12 849 25.07 13.3 55.9 74 8.7 47.7
07:20 1020 30.12 849 25.07 13.1 55.6 73 8.5 47.3
07:25 1020 30.12 849 25.07 13.2 55.8 73 8.5 47.3
07:30 1020 30.12 849 25.07 13.6 56.5 73 8.9 48
07:35 1020 30.12 849 25.07 13.6 56.4 74 9.1 48.4
07:40 1020 30.12 849 25.07 13.6 56.4 74 9 48.2
07:45 1020 30.12 849 25.07 13.6 56.5 75 9.3 48.7
07:50 1020 30.12 849 25.07 13.7 56.6 74 9.1 48.5
07:55 1020 30.12 849 25.07 13.9 56.9 73 9.2 48.6
08:00 1020 30.12 849 25.07 14 57.2 72 9 48.3
08:05 1020 30.12 849 25.07 14.5 58 68 8.6 47.5
08:10 1020 30.12 849 25.07 14.7 58.4 67 8.7 47.7
08:15 1020 30.12 849 25.07 14.7 58.4 68 8.8 47.9
08:20 1020 30.12 849 25.07 15 59 67 8.9 48.1
08:25 1020 30.12 849 25.07 15.9 60.5 64 9.2 48.6
08:30 1020 30.12 849 25.07 16.4 61.5 61 8.9 47.9
08:35 1020 30.12 849 25.07 16.7 62.1 61 9.3 48.7
08:40 1020 30.12 849 25.07 16.3 61.4 65 9.9 49.9
08:45 1020 30.12 849 25.07 16 60.8 65 9.6 49.3
08:50 1020 30.12 849 25.07 16 60.8 65 9.6 49.2
08:55 1020 30.12 849 25.07 15.9 60.6 66 9.6 49.3
09:00 1020 30.12 849 25.07 15.8 60.5 66 9.7 49.4
09:05 1020 30.12 849 25.07 16 60.8 65 9.6 49.2
09:10 1020 30.12 849 25.07 16.6 61.9 62 9.4 48.9
09:15 1020 30.12 849 25.07 17.4 63.4 58 9.3 48.7
09:20 1020 30.12 849 25.07 18.1 64.6 57 9.6 49.4
09:25 1020 30.12 849 25.07 17.7 63.9 61 10.2 50.3
09:30 1020 30.12 849 25.07 17.3 63.2 62 10 50
09:35 1019 30.09 849 25.07 17.7 63.9 60 9.9 49.8
09:40 1019 30.09 849 25.07 17.9 64.2 60 10 50.1
09:45 1019 30.09 849 25.07 17.6 63.8 60 9.9 49.8
09:50 1019 30.09 849 25.07 17.7 63.9 59 9.8 49.6
09:55 1019 30.09 849 25.07 17.6 63.6 60 9.9 49.9
10:00 1019 30.09 849 25.07 17.9 64.3 60 10.2 50.4
10:05 1019 30.09 849 25.07 18.7 65.6 56 10 49.9
10:10 1019 30.09 848 25.04 19.4 66.9 55 10.2 50.3
10:15 1019 30.09 848 25.04 19.7 67.4 52 9.8 49.7
10:20 1019 30.09 848 25.04 20.3 68.5 51 9.8 49.7
10:25 1019 30.09 848 25.04 20.5 68.9 50 9.9 49.8
10:30 1019 30.09 848 25.04 20.6 69.1 50 9.9 49.8
10:35 1019 30.09 848 25.04 20 68 52 10 50
10:40 1019 30.09 848 25.04 20.3 68.5 49 9.2 48.6
10:45 1019 30.09 848 25.04 20.9 69.6 47 9.5 49
10:50 1019 30.09 848 25.04 21 69.9 49 9.9 49.9
10:55 1019 30.09 848 25.04 21.2 70.1 48 9.8 49.7
11:00 1019 30.09 848 25.04 20.6 69.2 49 9.6 49.3
11:05 1019 30.09 848 25.04 20.8 69.4 48 9.4 48.9
11:10 1019 30.09 848 25.04 21 69.9 48 9.9 49.8
11:15 1019 30.09 848 25.04 21.3 70.3 48 9.9 49.8
11:20 1019 30.09 848 25.04 21.3 70.3 46 9.2 48.6
11:25 1019 30.09 848 25.04 21.4 70.6 45 9.3 48.8
11:30 1019 30.09 848 25.04 21.7 71.1 45 9.3 48.7
11:35 1019 30.09 848 25.04 21.1 69.9 47 9.5 49
11:40 1019 30.09 848 25.04 20.9 69.6 46 9 48.3
11:45 1018 30.06 848 25.04 21.1 70 46 9.3 48.7
11:50 1018 30.06 848 25.04 21.2 70.1 46 9.2 48.6
11:55 1018 30.06 848 25.04 21.1 70 47 9.7 49.4
12:00 1018 30.06 848 25.04 21.4 70.5 45 9.1 48.4
12:05 1018 30.06 847 25.01 22 71.5 44 9.2 48.5
12:10 1018 30.06 847 25.01 22.3 72.2 44 9.6 49.4
12:15 1018 30.06 847 25.01 22.3 72.2 43 9.4 48.9
12:20 1018 30.06 847 25.01 22.7 72.9 42 9.4 48.9
12:25 1018 30.06 847 25.01 23 73.3 41 9.1 48.3
12:30 1018 30.06 847 25.01 22.4 72.3 43 9.5 49.1
12:35 1018 30.06 847 25.01 22.8 73 40 8.6 47.5
12:40 1018 30.06 847 25.01 23.1 73.6 38 8.3 47
12:45 1018 30.06 847 25.01 23.6 74.5 38 8.7 47.7
12:50 1018 30.06 847 25.01 24.2 75.6 36 8.4 47.1
12:55 1018 30.06 847 25.01 23.9 75.1 39 9.3 48.8
13:00 1018 30.06 847 25.01 24.1 75.4 35 7.9 46.1
13:05 1017 30.03 847 25.01 24.1 75.3 36 8.4 47.1
13:10 1017 30.03 847 25.01 23.6 74.5 37 8.4 47
13:15 1017 30.03 847 25.01 23.2 73.7 40 8.9 48
13:20 1017 30.03 846 24.98 22.9 73.2 42 9.6 49.3
13:25 1017 30.03 846 24.98 22.3 72.2 41 8.5 47.3
13:30 1017 30.03 846 24.98 22.9 73.3 39 8.6 47.4
13:35 1017 30.03 846 24.98 23.1 73.6 37 7.7 45.8
13:40 1017 30.03 846 24.98 24 75.2 33 7.2 44.9
13:45 1017 30.03 846 24.98 24 75.2 39 9.3 48.7
13:50 1017 30.03 846 24.98 23.3 74 40 9.2 48.5
13:55 1017 30.03 846 24.98 23.5 74.3 34 6.8 44.2
14:00 1017 30.03 846 24.98 23.6 74.4 34 6.9 44.5
14:05 1017 30.03 846 24.98 24.2 75.5 32 6.5 43.7
14:10 1017 30.03 846 24.98 24.4 76 30 6.1 43
14:15 1016 30 846 24.98 24.7 76.4 31 6.8 44.3
14:20 1016 30 846 24.98 24.2 75.6 31 6.5 43.6
14:25 1016 30 845 24.95 24.1 75.4 31 6.3 43.3
14:30 1016 30 845 24.95 24.7 76.4 29 5.7 42.2
14:35 1016 30 845 24.95 24.7 76.4 30 6.4 43.6
14:40 1016 30 845 24.95 24 75.2 32 6.3 43.3
14:45 1016 30 845 24.95 24.2 75.5 31 6.3 43.3
14:50 1016 30 845 24.95 24.1 75.3 30 5.7 42.2
14:55 1016 30 845 24.95 23.9 75 30 5.5 41.8
15:00 1016 30 845 24.95 24.2 75.6 29 5.1 41.1
15:05 1016 30 845 24.95 24.7 76.4 29 5.9 42.6
15:10 1016 30 845 24.95 25 77 28 5.3 41.5
15:15 1016 30 845 24.95 25.4 77.7 27 5.5 42
15:20 1016 30 845 24.95 25.4 77.7 26 4.7 40.5
15:25 1016 30 845 24.95 25.4 77.7 27 5.5 41.9
15:30 1016 30 845 24.95 24.9 76.7 29 5.9 42.6
15:35 1016 30 845 24.95 24.4 75.9 25 3.4 38.2
15:40 1016 30 845 24.95 24.2 75.6 27 4.1 39.4
15:45 1016 30 845 24.95 24 75.3 27 4 39.1
15:50 1016 30 845 24.95 23.8 74.8 27 3.6 38.5
15:55 1015 29.97 845 24.95 23.8 74.9 30 5.5 41.9
16:00 1015 29.97 845 24.95 23.9 75 26 3.6 38.5
16:05 1015 29.97 845 24.95 24.1 75.3 25 2.8 37
16:10 1015 29.97 845 24.95 23.9 74.9 26 3.4 38.2
16:15 1015 29.97 845 24.95 23.8 74.8 25 2.6 36.6
16:20 1015 29.97 844 24.92 23.8 74.9 25 3 37.3
16:25 1015 29.97 844 24.92 24.1 75.4 25 3.1 37.6
16:30 1015 29.97 844 24.92 23.9 75.1 24 2.5 36.4
16:35 1015 29.97 844 24.92 24.1 75.5 25 3.2 37.7
16:40 1015 29.97 844 24.92 24.3 75.7 25 3.5 38.2
16:45 1015 29.97 844 24.92 24.3 75.8 26 3.6 38.5
16:50 1015 29.97 844 24.92 24.3 75.8 26 3.6 38.5
16:55 1015 29.97 844 24.92 24.1 75.4 27 3.9 39.1
17:00 1015 29.97 844 24.92 23.2 73.7 32 5.7 42.3
17:05 1015 29.97 844 24.92 22.8 73 32 5.6 42.1
17:10 1015 29.97 844 24.92 22.3 72.1 34 5.7 42.3
17:15 1015 29.97 844 24.92 21.9 71.5 34 5.5 42
17:20 1015 29.97 844 24.92 21.8 71.2 35 5.7 42.2
17:25 1015 29.97 844 24.92 21.8 71.3 34 5.6 42.1
17:30 1015 29.97 844 24.92 21.8 71.3 34 5.4 41.6
17:35 1015 29.97 844 24.92 21.9 71.3 34 5.4 41.8
17:40 1015 29.97 845 24.95 21.8 71.3 36 6.4 43.5
17:45 1015 29.97 845 24.95 21.6 70.9 39 7.2 45
17:50 1015 29.97 845 24.95 21.1 69.9 45 8.8 47.8
17:55 1016 30 845 24.95 20.4 68.8 45 8.3 46.9
18:00 1016 30 845 24.95 20.1 68.1 46 8.3 47
18:05 1016 30 845 24.95 19.8 67.6 47 8.3 46.9
18:10 1016 30 845 24.95 19.7 67.4 47 8.2 46.7
18:15 1016 30 845 24.95 19.5 67 46 7.8 46.1
18:20 1016 30 845 24.95 19.3 66.8 45 7.3 45.2
18:25 1016 30 845 24.95 19.1 66.5 46 7.3 45.1
18:30 1016 30 845 24.95 19 66.3 46 7.3 45.2
18:35 1016 30 846 24.98 18.9 66.1 46 7.1 44.7
18:40 1017 30.03 846 24.98 18.9 65.9 48 7.9 46.2
18:45 1017 30.03 846 24.98 18.6 65.4 50 8 46.5
18:50 1017 30.03 846 24.98 18.2 64.7 54 8.8 47.8
18:55 1017 30.03 846 24.98 17.8 64 57 9.4 48.9
19:00 1017 30.03 846 24.98 17.4 63.3 58 9 48.2
19:05 1017 30.03 846 24.98 17 62.6 58 8.8 47.9
19:10 1017 30.03 846 24.98 16.9 62.4 57 8.3 46.9
19:15 1017 30.03 847 25.01 16.8 62.2 58 8.6 47.5
19:20 1017 30.03 847 25.01 16.6 61.8 57 8.2 46.8
19:25 1017 30.03 847 25.01 16.3 61.3 61 8.9 48
19:30 1017 30.03 847 25.01 15.8 60.4 64 9.2 48.5
19:35 1017 30.03 847 25.01 15.8 60.4 60 8.1 46.6
19:40 1017 30.03 847 25.01 16.1 61 59 8.1 46.5
19:45 1018 30.06 847 25.01 16.3 61.3 58 8 46.5
19:50 1018 30.06 847 25.01 16.1 61 66 9.8 49.7
19:55 1018 30.06 847 25.01 15.1 59.2 70 9.8 49.6
20:00 1018 30.06 847 25.01 14.9 58.8 67 8.9 48
20:05 1018 30.06 847 25.01 15 59.1 67 8.9 48.1
20:10 1018 30.06 847 25.01 15.2 59.4 65 8.7 47.7
20:15 1018 30.06 847 25.01 15.3 59.6 63 8.5 47.3
20:20 1018 30.06 847 25.01 15.5 60 60 7.9 46.3
20:25 1018 30.06 847 25.01 15.8 60.5 59 8 46.4
20:30 1018 30.06 847 25.01 15.8 60.5 61 8.5 47.2
20:35 1018 30.06 847 25.01 15.7 60.2 62 8.6 47.5
20:40 1018 30.06 847 25.01 15.7 60.3 61 8.3 47
20:45 1018 30.06 847 25.01 15.9 60.6 60 8.2 46.7
20:50 1018 30.06 847 25.01 15.9 60.6 61 8.5 47.2
20:55 1018 30.06 847 25.01 15.8 60.4 61 8.5 47.3
21:00 1018 30.06 847 25.01 15.6 60 62 8.5 47.2
21:05 1018 30.06 848 25.04 15.5 59.8 62 8.2 46.8
21:10 1018 30.06 848 25.04 15.4 59.8 61 8.1 46.6
21:15 1018 30.06 848 25.04 15.5 59.8 63 8.6 47.5
21:20 1019 30.09 848 25.04 15.3 59.6 63 8.4 47.1
21:25 1018 30.06 848 25.04 15.3 59.5 64 8.5 47.4
21:30 1019 30.09 848 25.04 15.4 59.8 62 8.3 46.9
21:35 1019 30.09 848 25.04 15.5 59.9 59 7.6 45.7
21:40 1019 30.09 848 25.04 15.5 59.9 66 9.1 48.5
21:45 1019 30.09 848 25.04 15.2 59.4 70 9.9 49.8
21:50 1019 30.09 848 25.04 15 59 69 9.5 49.1
21:55 1019 30.09 848 25.04 14.7 58.4 74 10.2 50.4
22:00 1019 30.09 848 25.04 14.4 58 72 9.5 49.2
22:05 1019 30.09 848 25.04 14.1 57.5 75 9.7 49.5
22:10 1019 30.09 848 25.04 13.9 57 73 9.3 48.7
22:15 1019 30.09 848 25.04 13.7 56.6 75 9.3 48.8
22:20 1019 30.09 848 25.04 13.4 56 79 9.9 49.8
22:25 1019 30.09 848 25.04 13.3 55.9 79 9.7 49.5
22:30 1019 30.09 848 25.04 13.3 56 78 9.5 49.1
22:35 1019 30.09 848 25.04 13.1 55.6 82 10.1 50.2
22:40 1019 30.09 848 25.04 13 55.4 86 10.7 51.3
22:45 1019 30.09 848 25.04 13 55.3 83 10.1 50.2
22:50 1019 30.09 848 25.04 13 55.3 82 10.1 50.1
22:55 1019 30.09 848 25.04 13 55.5 80 9.6 49.3
23:00 1019 30.09 848 25.04 13.1 55.7 78 9.5 49.1
23:05 1019 30.09 848 25.04 13.1 55.7 81 10 49.9
23:10 1019 30.09 848 25.04 13.1 55.5 83 10.2 50.4
23:15 1019 30.09 848 25.04 13 55.4 84 10.4 50.7
23:20 1019 30.09 848 25.04 12.9 55.2 84 10.3 50.5
23:25 1019 30.09 848 25.04 12.9 55.2 83 10.1 50.1
23:30 1019 30.09 848 25.04 13 55.3 83 10.2 50.3
23:35 1019 30.09 848 25.04 12.9 55.3 84 10.3 50.5
23:40 1019 30.09 848 25.04 12.9 55.1 83 10.1 50.1
23:45 1019 30.09 848 25.04 12.8 55 84 10.1 50.2
23:50 1019 30.09 848 25.04 12.7 54.9 83 10 49.9
23:55 1019 30.09 848 25.04 12.8 55 82 9.8 49.7
24:00 1019 30.09 848 25.04 12.7 54.9 84 10.1 50.2